createdAt,value
2019-01-10T00:00:41.868Z,96543.22
2019-01-10T00:03:36.399Z,96543.22
2019-01-10T00:06:32.989Z,96549.52
2019-01-10T00:09:30.650Z,96552.33
2019-01-10T00:12:26.257Z,96552.33
2019-01-10T00:15:24.662Z,96554.81
2019-01-10T00:18:21.384Z,96556.52
2019-01-10T00:21:18.990Z,96561.49
2019-01-10T00:24:15.486Z,96563.55
2019-01-10T00:27:11.288Z,96563.98
2019-01-10T00:30:07.360Z,96573.19
2019-01-10T00:33:04.450Z,96571.94
2019-01-10T00:36:00.043Z,96579.03
2019-01-10T00:38:56.359Z,96580.98
2019-01-10T00:41:53.210Z,96577.69
2019-01-10T00:44:48.963Z,96579.80
2019-01-10T00:47:44.681Z,96582.23
2019-01-10T00:50:42.474Z,96584.72
2019-01-10T00:53:39.444Z,96593.13
2019-01-10T00:56:35.006Z,96592.91
2019-01-10T00:59:32.552Z,96601.24
2019-01-10T01:02:30.604Z,96602.17
2019-01-10T01:05:26.020Z,96602.94
2019-01-10T01:08:22.460Z,96610.09
2019-01-10T01:11:18.791Z,96617.13
2019-01-10T01:14:15.590Z,96621.31
2019-01-10T01:17:11.054Z,96618.38
2019-01-10T01:20:08.638Z,96622.56
2019-01-10T01:23:05.469Z,96617.98
2019-01-10T01:26:01.994Z,96627.09
2019-01-10T01:28:57.613Z,96624.60
2019-01-10T01:31:54.352Z,96627.86
2019-01-10T01:34:50.996Z,96634.57
2019-01-10T01:37:46.546Z,96634.25
2019-01-10T01:40:42.953Z,96633.00
2019-01-10T01:43:39.427Z,96637.98
2019-01-10T01:46:37.250Z,96638.31
2019-01-10T01:49:32.870Z,96637.83
2019-01-10T01:52:30.760Z,96636.58
2019-01-10T01:55:27.616Z,96636.58
2019-01-10T01:58:23.319Z,96638.63
2019-01-10T02:01:22.021Z,96641.12
2019-01-10T02:04:17.506Z,96642.81
2019-01-10T02:07:13.813Z,96649.05
2019-01-10T02:10:10.498Z,96645.97
2019-01-10T02:13:06.294Z,96647.53
2019-01-10T02:16:02.874Z,96648.15
2019-01-10T02:18:58.790Z,96649.39
2019-01-10T02:21:55.640Z,96654.37
2019-01-10T02:24:53.306Z,96660.92
2019-01-10T02:27:48.992Z,96659.20
2019-01-10T02:30:44.786Z,96661.24
2019-01-10T02:33:40.229Z,96663.25
2019-01-10T02:36:37.712Z,96655.72
2019-01-10T02:39:33.430Z,96654.95
2019-01-10T02:42:31.014Z,96662.01
2019-01-10T02:45:26.817Z,96658.62
2019-01-10T02:48:23.518Z,96662.48
2019-01-10T02:51:18.728Z,96656.26
2019-01-10T02:54:15.857Z,96664.34
2019-01-10T02:57:12.291Z,96657.95
2019-01-10T03:00:08.957Z,96660.77
2019-01-10T03:03:06.543Z,96655.46
2019-01-10T03:06:04.127Z,96658.27
2019-01-10T03:09:00.814Z,96658.37
2019-01-10T03:11:57.614Z,96652.14
2019-01-10T03:14:54.056Z,96655.94
2019-01-10T03:17:50.779Z,96660.92
2019-01-10T03:20:45.781Z,96657.57
2019-01-10T03:23:42.116Z,96652.97
2019-01-10T03:26:38.689Z,96650.03
2019-01-10T03:29:35.398Z,96647.53
2019-01-10T03:32:33.267Z,96651.34
2019-01-10T03:35:28.813Z,96653.90
2019-01-10T03:38:25.361Z,96656.70
2019-01-10T03:41:20.865Z,96662.48
2019-01-10T03:44:17.476Z,96659.52
2019-01-10T03:47:13.978Z,96663.25
2019-01-10T03:50:09.635Z,96662.42
2019-01-10T03:53:07.093Z,96664.05
2019-01-10T03:56:02.624Z,96659.06
2019-01-10T03:58:59.189Z,96666.55
2019-01-10T04:01:55.174Z,96669.03
2019-01-10T04:04:51.882Z,96669.83
2019-01-10T04:07:48.510Z,96668.11
2019-01-10T04:10:43.988Z,96669.83
2019-01-10T04:13:41.776Z,96671.08
2019-01-10T04:16:37.521Z,96676.52
2019-01-10T04:19:33.856Z,96670.73
2019-01-10T04:22:31.490Z,96677.31
2019-01-10T04:25:28.401Z,96686.92
2019-01-10T04:28:25.889Z,96684.92
2019-01-10T04:31:21.747Z,96683.19
2019-01-10T04:34:18.558Z,96684.92
2019-01-10T04:37:14.105Z,96689.10
2019-01-10T04:40:10.840Z,96690.83
2019-01-10T04:43:07.256Z,96687.92
2019-01-10T04:46:03.827Z,96696.75
2019-01-10T04:48:59.434Z,96705.53
2019-01-10T04:51:56.255Z,96697.99
2019-01-10T04:54:56.136Z,96700.62
2019-01-10T04:57:47.521Z,96702.63
2019-01-10T05:00:45.253Z,96711.83
2019-01-10T05:03:42.869Z,96712.28
2019-01-10T05:06:39.471Z,96711.03
2019-01-10T05:09:35.149Z,96712.77
2019-01-10T05:12:31.722Z,96717.27
2019-01-10T05:15:28.980Z,96726.41
2019-01-10T05:18:24.530Z,96731.45
2019-01-10T05:21:21.536Z,96726.78
2019-01-10T05:24:18.126Z,96733.78
2019-01-10T05:27:14.626Z,96737.69
2019-01-10T05:30:12.510Z,96745.92
2019-01-10T05:33:07.949Z,96741.74
2019-01-10T05:36:04.584Z,96747.59
2019-01-10T05:38:59.729Z,96751.23
2019-01-10T05:41:56.361Z,96752.47
2019-01-10T05:44:51.266Z,96753.41
2019-01-10T05:47:47.612Z,96753.34
2019-01-10T05:50:44.443Z,96757.45
2019-01-10T05:53:40.959Z,96758.25
2019-01-10T05:56:38.945Z,96757.45
2019-01-10T05:59:35.067Z,96762.44
2019-01-10T06:02:32.644Z,96774.91
2019-01-10T06:05:28.767Z,96771.65
2019-01-10T06:08:25.128Z,96783.31
2019-01-10T06:11:21.191Z,96781.30
2019-01-10T06:14:18.693Z,96784.18
2019-01-10T06:17:15.246Z,96790.89
2019-01-10T06:20:10.730Z,96797.58
2019-01-10T06:23:07.338Z,96795.95
2019-01-10T06:26:02.981Z,96797.19
2019-01-10T06:28:59.748Z,96803.49
2019-01-10T06:31:56.009Z,96807.61
2019-01-10T06:34:54.412Z,96808.86
2019-01-10T06:37:49.754Z,96809.66
2019-01-10T06:40:46.727Z,96806.75
2019-01-10T06:43:44.080Z,96814.71
2019-01-10T06:46:40.042Z,96823.05
2019-01-10T06:49:36.862Z,96821.80
2019-01-10T06:52:32.483Z,96819.77
2019-01-10T06:55:31.064Z,96831.36
2019-01-10T06:58:26.677Z,96833.47
2019-01-10T07:01:24.381Z,96832.23
2019-01-10T07:04:21.107Z,96842.65
2019-01-10T07:07:17.414Z,96835.97
2019-01-10T07:10:13.958Z,96842.65
2019-01-10T07:13:10.859Z,96849.67
2019-01-10T07:16:07.460Z,96856.70
2019-01-10T07:19:03.967Z,96859.27
2019-01-10T07:22:09.891Z,96860.89
2019-01-10T07:25:20.332Z,96856.29
2019-01-10T07:28:45.140Z,96865.08
2019-01-10T07:31:41.738Z,96862.38
2019-01-10T07:34:38.583Z,96872.56
2019-01-10T07:37:35.751Z,96870.80
2019-01-10T07:40:33.132Z,96868.23
2019-01-10T07:43:28.835Z,96870.72
2019-01-10T07:46:27.238Z,96879.14
2019-01-10T07:49:24.569Z,96868.37
2019-01-10T07:52:21.525Z,96870.86
2019-01-10T07:55:18.049Z,96879.28
2019-01-10T07:58:14.916Z,96885.20
2019-01-10T08:01:10.527Z,96885.65
2019-01-10T08:04:07.201Z,96890.33
2019-01-10T08:07:02.777Z,96906.67
2019-01-10T08:10:00.167Z,96907.60
2019-01-10T08:12:54.857Z,96910.96
2019-01-10T08:15:52.523Z,96919.90
2019-01-10T08:18:49.043Z,96923.56
2019-01-10T08:21:46.635Z,96926.93
2019-01-10T08:24:42.086Z,96933.30
2019-01-10T08:27:38.862Z,96939.23
2019-01-10T08:30:41.308Z,96936.80
2019-01-10T08:33:37.711Z,96944.84
2019-01-10T08:36:34.487Z,96943.73
2019-01-10T08:39:30.885Z,96948.09
2019-01-10T08:42:26.874Z,96944.98
2019-01-10T08:45:22.385Z,96948.09
2019-01-10T08:48:19.922Z,96952.29
2019-01-10T08:51:15.649Z,96954.64
2019-01-10T08:54:12.191Z,96953.54
2019-01-10T08:57:07.555Z,96950.35
2019-01-10T09:00:04.166Z,96957.25
2019-01-10T09:02:59.885Z,96954.75
2019-01-10T09:05:56.645Z,96959.36
2019-01-10T09:08:52.353Z,96959.91
2019-01-10T09:11:49.033Z,96961.47
2019-01-10T09:14:45.841Z,96960.54
2019-01-10T09:17:42.476Z,96963.17
2019-01-10T09:20:39.264Z,96975.33
2019-01-10T09:23:34.988Z,96975.02
2019-01-10T09:26:37.699Z,96980.15
2019-01-10T09:29:28.648Z,96984.66
2019-01-10T09:32:25.219Z,96988.25
2019-01-10T09:35:21.758Z,96987.91
2019-01-10T09:38:19.414Z,96999.00
2019-01-10T09:41:20.945Z,96991.66
2019-01-10T09:44:18.639Z,96992.09
2019-01-10T09:47:16.189Z,97000.20
2019-01-10T09:50:12.241Z,97000.34
2019-01-10T09:53:08.951Z,96999.02
2019-01-10T09:56:04.775Z,97011.12
2019-01-10T09:59:00.882Z,97019.98
2019-01-10T10:01:56.528Z,97014.02
2019-01-10T10:04:53.181Z,97016.52
2019-01-10T10:07:49.889Z,97012.50
2019-01-10T10:10:46.234Z,97023.45
2019-01-10T10:13:41.846Z,97018.38
2019-01-10T10:16:38.678Z,97023.38
2019-01-10T10:19:34.495Z,97022.75
2019-01-10T10:22:30.536Z,97025.88
2019-01-10T10:25:27.452Z,97029.94
2019-01-10T10:28:26.034Z,97028.67
2019-01-10T10:31:22.810Z,97034.73
2019-01-10T10:34:19.370Z,97029.61
2019-01-10T10:37:17.347Z,97032.69
2019-01-10T10:40:14.236Z,97036.30
2019-01-10T10:43:10.696Z,97030.11
2019-01-10T10:46:06.564Z,97040.03
2019-01-10T10:49:02.501Z,97043.78
2019-01-10T10:51:59.474Z,97040.47
2019-01-10T10:54:56.367Z,97039.03
2019-01-10T10:57:52.678Z,97043.93
2019-01-10T11:00:48.427Z,97044.36
2019-01-10T11:03:46.170Z,97044.84
2019-01-10T11:06:44.636Z,97050.23
2019-01-10T11:09:42.620Z,97052.95
2019-01-10T11:12:41.322Z,97051.02
2019-01-10T11:15:40.244Z,97050.95
2019-01-10T11:18:38.544Z,97053.16
2019-01-10T11:21:36.433Z,97051.28
2019-01-10T11:24:34.229Z,97054.72
2019-01-10T11:27:38.022Z,97053.09
2019-01-10T11:30:36.514Z,97056.41
2019-01-10T11:33:46.427Z,97044.09
2019-01-10T11:36:43.768Z,97042.66
2019-01-10T11:39:41.977Z,97050.30
2019-01-10T11:42:38.322Z,97050.72
2019-01-10T11:45:36.415Z,97050.66
2019-01-10T11:48:33.899Z,97050.30
2019-01-10T11:51:30.766Z,97044.23
2019-01-10T11:54:29.550Z,97048.28
2019-01-10T11:57:27.077Z,97048.28
2019-01-10T12:00:24.372Z,97054.66
2019-01-10T12:03:22.324Z,97048.86
2019-01-10T12:06:18.051Z,97049.16
2019-01-10T12:09:19.017Z,97056.59
2019-01-10T12:12:16.480Z,97056.28
2019-01-10T12:15:12.196Z,97062.08
2019-01-10T12:18:08.045Z,97058.64
2019-01-10T12:21:05.258Z,97063.70
2019-01-10T12:24:02.409Z,97063.28
2019-01-10T12:27:05.931Z,97064.84
2019-01-10T12:30:04.230Z,97069.70
2019-01-10T12:33:04.796Z,97063.33
2019-01-10T12:36:02.324Z,97063.64
2019-01-10T12:38:58.801Z,97067.56
2019-01-10T12:41:57.338Z,97066.45
2019-01-10T12:44:57.085Z,97066.00
2019-01-10T12:47:52.779Z,97066.87
2019-01-10T12:50:50.644Z,97064.58
2019-01-10T12:53:46.230Z,97068.56
2019-01-10T12:56:42.887Z,97065.41
2019-01-10T12:59:39.367Z,97067.91
2019-01-10T13:02:36.989Z,97065.64
2019-01-10T13:05:33.844Z,97065.45
2019-01-10T13:08:29.406Z,97068.95
2019-01-10T13:11:25.951Z,97075.55
2019-01-10T13:14:22.515Z,97078.04
2019-01-10T13:17:18.974Z,97076.45
2019-01-10T13:20:14.628Z,97083.10
2019-01-10T13:23:11.080Z,97082.79
2019-01-10T13:26:07.135Z,97082.23
2019-01-10T13:29:03.631Z,97089.37
2019-01-10T13:31:59.270Z,97082.37
2019-01-10T13:34:55.833Z,97090.00
2019-01-10T13:37:51.451Z,97094.38
2019-01-10T13:40:48.142Z,97095.80
2019-01-10T13:43:45.828Z,97091.15
2019-01-10T13:46:42.107Z,97093.72
2019-01-10T13:49:38.116Z,97104.57
2019-01-10T13:52:34.966Z,97105.51
2019-01-10T13:55:31.790Z,97109.77
2019-01-10T13:58:27.518Z,97105.02
2019-01-10T14:01:24.273Z,97112.34
2019-01-10T14:04:25.078Z,97111.41
2019-01-10T14:07:20.810Z,97116.59
2019-01-10T14:10:17.405Z,97120.03
2019-01-10T14:13:12.983Z,97119.64
2019-01-10T14:16:09.045Z,97124.50
2019-01-10T14:19:04.851Z,97128.63
2019-01-10T14:22:02.712Z,97127.54
2019-01-10T14:24:59.524Z,97129.86
2019-01-10T14:27:59.506Z,97135.79
2019-01-10T14:30:52.995Z,97134.85
2019-01-10T14:33:49.697Z,97140.64
2019-01-10T14:36:46.526Z,97137.83
2019-01-10T14:39:41.849Z,97138.61
2019-01-10T14:42:42.701Z,97147.51
2019-01-10T14:45:39.638Z,97149.83
2019-01-10T14:48:36.440Z,97155.75
2019-01-10T14:51:34.157Z,97160.67
2019-01-10T14:54:32.329Z,97157.41
2019-01-10T14:57:29.088Z,97159.98
2019-01-10T15:00:30.443Z,97164.65
2019-01-10T15:03:27.255Z,97159.51
2019-01-10T15:06:23.193Z,97163.78
2019-01-10T15:09:27.557Z,97176.80
2019-01-10T15:12:24.190Z,97175.09
2019-01-10T15:15:20.885Z,97177.59
2019-01-10T15:18:16.553Z,97186.63
2019-01-10T15:21:19.957Z,97189.05
2019-01-10T15:24:18.054Z,97188.78
2019-01-10T15:27:13.547Z,97192.22
2019-01-10T15:30:10.417Z,97198.77
2019-01-10T15:33:12.528Z,97198.00
2019-01-10T15:36:09.200Z,97201.90
2019-01-10T15:39:04.876Z,97201.90
2019-01-10T15:42:02.585Z,97207.64
2019-01-10T15:44:59.279Z,97210.63
2019-01-10T15:47:55.986Z,97213.50
2019-01-10T15:50:53.148Z,97215.92
2019-01-10T15:53:48.998Z,97219.36
2019-01-10T15:56:46.078Z,97220.91
2019-01-10T15:59:46.821Z,97223.25
2019-01-10T16:02:44.164Z,97228.23
2019-01-10T16:05:41.204Z,97233.22
2019-01-10T16:08:38.151Z,97239.05
2019-01-10T16:11:35.233Z,97239.61
2019-01-10T16:14:30.910Z,97245.85
2019-01-10T16:17:28.043Z,97244.91
2019-01-10T16:20:29.013Z,97254.09
2019-01-10T16:23:26.967Z,97254.80
2019-01-10T16:26:22.866Z,97268.14
2019-01-10T16:29:19.564Z,97264.70
2019-01-10T16:32:16.901Z,97272.00
2019-01-10T16:35:12.262Z,97273.24
2019-01-10T16:38:08.618Z,97282.77
2019-01-10T16:41:04.339Z,97287.26
2019-01-10T16:44:03.438Z,97286.96
2019-01-10T16:46:57.791Z,97285.54
2019-01-10T16:49:54.760Z,97285.34
2019-01-10T16:52:52.908Z,97287.09
2019-01-10T16:55:48.713Z,97297.81
2019-01-10T16:58:45.888Z,97300.31
2019-01-10T17:01:41.569Z,97304.92
2019-01-10T17:04:38.422Z,97307.48
2019-01-10T17:07:36.322Z,97312.97
2019-01-10T17:10:32.488Z,97313.72
2019-01-10T17:13:30.261Z,97314.95
2019-01-10T17:16:26.162Z,97322.89
2019-01-10T17:19:23.239Z,97339.02
2019-01-10T17:22:19.856Z,97326.11
2019-01-10T17:25:15.933Z,97335.13
2019-01-10T17:28:12.981Z,97336.59
2019-01-10T17:31:09.148Z,97345.69
2019-01-10T17:34:06.323Z,97344.77
2019-01-10T17:37:03.644Z,97350.52
2019-01-10T17:40:01.798Z,97362.22
2019-01-10T17:42:57.406Z,97361.07
2019-01-10T17:45:53.778Z,97365.43
2019-01-10T17:48:48.669Z,97359.00
2019-01-10T17:51:46.712Z,97366.14
2019-01-10T17:54:45.486Z,97362.86
2019-01-10T17:57:41.554Z,97368.44
2019-01-10T18:00:40.743Z,97367.72
2019-01-10T18:03:40.288Z,97369.34
2019-01-10T18:06:35.500Z,97372.70
2019-01-10T18:09:31.027Z,97370.38
2019-01-10T18:12:27.932Z,97378.48
2019-01-10T18:15:27.814Z,97377.02
2019-01-10T18:18:25.128Z,97382.33
2019-01-10T18:21:21.455Z,97380.88
2019-01-10T18:24:17.870Z,97379.92
2019-01-10T18:27:14.822Z,97388.09
2019-01-10T18:30:11.649Z,97388.01
2019-01-10T18:33:07.715Z,97397.13
2019-01-10T18:36:04.517Z,97392.16
2019-01-10T18:39:00.574Z,97396.17
2019-01-10T18:41:57.230Z,97398.28
2019-01-10T18:44:53.185Z,97398.67
2019-01-10T18:47:49.462Z,97401.91
2019-01-10T18:50:45.608Z,97397.71
2019-01-10T18:53:42.382Z,97400.95
2019-01-10T18:56:39.769Z,97401.84
2019-01-10T18:59:35.313Z,97401.35
2019-01-10T19:02:32.448Z,97399.27
2019-01-10T19:05:33.495Z,97405.88
2019-01-10T19:08:30.295Z,97411.83
2019-01-10T19:11:26.073Z,97415.67
2019-01-10T19:14:23.660Z,97419.50
2019-01-10T19:17:26.104Z,97420.57
2019-01-10T19:20:17.162Z,97426.79
2019-01-10T19:23:15.230Z,97430.02
2019-01-10T19:26:11.990Z,97429.06
2019-01-10T19:29:09.696Z,97432.05
2019-01-10T19:32:05.406Z,97440.08
2019-01-10T19:35:01.749Z,97436.45
2019-01-10T19:37:58.840Z,97437.97
2019-01-10T19:40:54.549Z,97445.25
2019-01-10T19:43:50.771Z,97439.50
2019-01-10T19:46:46.805Z,97443.23
2019-01-10T19:49:44.995Z,97445.45
2019-01-10T19:52:41.834Z,97445.03
2019-01-10T19:55:39.747Z,97447.16
2019-01-10T19:58:36.651Z,97448.22
2019-01-10T20:01:37.746Z,97458.72
2019-01-10T20:04:32.847Z,97455.77
2019-01-10T20:07:29.950Z,97470.04
2019-01-10T20:10:25.372Z,97467.42
2019-01-10T20:13:22.259Z,97467.92
2019-01-10T20:16:21.007Z,97471.75
2019-01-10T20:19:17.967Z,97477.59
2019-01-10T20:22:13.993Z,97475.67
2019-01-10T20:25:11.762Z,97470.20
2019-01-10T20:28:08.599Z,97471.94
2019-01-10T20:31:05.234Z,97474.42
2019-01-10T20:34:00.169Z,97475.67
2019-01-10T20:36:56.416Z,97468.95
2019-01-10T20:39:52.818Z,97463.33
2019-01-10T20:42:54.874Z,97474.52
2019-01-10T20:45:52.639Z,97473.65
2019-01-10T20:48:48.358Z,97484.25
2019-01-10T20:51:45.983Z,97479.87
2019-01-10T20:54:42.565Z,97486.08
2019-01-10T20:57:39.627Z,97477.56
2019-01-10T21:00:41.323Z,97490.66
2019-01-10T21:03:37.100Z,97493.41
2019-01-10T21:06:36.182Z,97487.38
2019-01-10T21:09:34.222Z,97490.65
2019-01-10T21:12:29.969Z,97496.45
2019-01-10T21:15:27.315Z,97493.97
2019-01-10T21:18:28.625Z,97487.48
2019-01-10T21:21:20.900Z,97491.70
2019-01-10T21:24:16.675Z,97495.72
2019-01-10T21:27:13.894Z,97493.97
2019-01-10T21:30:09.977Z,97498.20
2019-01-10T21:33:07.621Z,97498.39
2019-01-10T21:36:03.281Z,97496.40
2019-01-10T21:38:59.734Z,97503.36
2019-01-10T21:41:55.603Z,97500.00
2019-01-10T21:44:52.243Z,97498.95
2019-01-10T21:47:50.034Z,97499.53
2019-01-10T21:50:45.619Z,97505.47
2019-01-10T21:53:42.181Z,97509.11
2019-01-10T21:56:37.824Z,97515.61
2019-01-10T21:59:35.055Z,97520.58
2019-01-10T22:02:30.440Z,97518.65
2019-01-10T22:05:26.894Z,97521.96
2019-01-10T22:08:23.442Z,97516.25
2019-01-10T22:11:21.406Z,97519.48
2019-01-10T22:14:17.115Z,97518.81
2019-01-10T22:17:14.870Z,97512.02
2019-01-10T22:20:11.530Z,97522.83
2019-01-10T22:23:07.390Z,97517.48
2019-01-10T22:26:04.210Z,97523.43
2019-01-10T22:29:00.739Z,97524.17
2019-01-10T22:31:57.264Z,97522.66
2019-01-10T22:34:53.232Z,97523.62
2019-01-10T22:37:49.861Z,97524.39
2019-01-10T22:40:48.633Z,97516.94
2019-01-10T22:43:44.443Z,97521.69
2019-01-10T22:46:40.561Z,97521.87
2019-01-10T22:49:36.036Z,97519.37
2019-01-10T22:52:32.649Z,97520.89
2019-01-10T22:55:27.602Z,97523.18
2019-01-10T22:58:24.983Z,97513.98
2019-01-10T23:01:44.414Z,97515.45
2019-01-10T23:04:49.671Z,97526.23
2019-01-10T23:07:47.367Z,97519.83
2019-01-10T23:10:43.015Z,97517.44
2019-01-10T23:13:39.789Z,97517.70
2019-01-10T23:16:36.327Z,97516.19
2019-01-10T23:19:32.838Z,97520.70
2019-01-10T23:22:33.903Z,97521.66
2019-01-10T23:25:30.489Z,97518.91
2019-01-10T23:28:27.107Z,97525.31
2019-01-10T23:31:25.011Z,97523.09
2019-01-10T23:34:27.346Z,97521.30
2019-01-10T23:37:24.025Z,97517.84
2019-01-10T23:40:20.692Z,97524.63
2019-01-10T23:43:16.439Z,97528.77
2019-01-10T23:46:12.682Z,97526.05
2019-01-10T23:49:10.226Z,97526.05
2019-01-10T23:52:07.218Z,97526.05
2019-01-10T23:55:03.923Z,97521.08
2019-01-10T23:57:59.322Z,97518.31
